sensor_id;sensor_type;location;lat;lon;timestamp;pressure;altitude;pressure_sealevel;temperature;humidity
82951;BME280;72737;53.332;6.514;2024-03-08T00:01:50;102147.38;;;14.38;54.79
82951;BME280;72737;53.332;6.514;2024-03-08T00:04:15;102135.00;;;14.35;54.77
82951;BME280;72737;53.332;6.514;2024-03-08T00:06:41;102131.69;;;14.28;55.14
82951;BME280;72737;53.332;6.514;2024-03-08T00:09:07;102132.81;;;14.32;54.49
82951;BME280;72737;53.332;6.514;2024-03-08T00:11:35;102131.44;;;14.35;54.30
82951;BME280;72737;53.332;6.514;2024-03-08T00:14:00;102127.34;;;14.32;54.49
82951;BME280;72737;53.332;6.514;2024-03-08T00:16:27;102127.56;;;14.26;54.71
82951;BME280;72737;53.332;6.514;2024-03-08T00:18:53;102124.28;;;14.29;54.98
82951;BME280;72737;53.332;6.514;2024-03-08T00:21:18;102121.56;;;14.29;55.29
82951;BME280;72737;53.332;6.514;2024-03-08T00:23:43;102122.34;;;14.24;55.00
82951;BME280;72737;53.332;6.514;2024-03-08T00:26:09;102120.16;;;14.21;55.21
82951;BME280;72737;53.332;6.514;2024-03-08T00:28:34;102120.72;;;14.23;55.14
82951;BME280;72737;53.332;6.514;2024-03-08T00:31:00;102119.91;;;14.23;55.03
82951;BME280;72737;53.332;6.514;2024-03-08T00:33:27;102121.28;;;14.25;55.43
82951;BME280;72737;53.332;6.514;2024-03-08T00:35:56;102116.84;;;14.19;55.61
82951;BME280;72737;53.332;6.514;2024-03-08T00:38:22;102119.59;;;14.19;55.54
82951;BME280;72737;53.332;6.514;2024-03-08T00:40:47;102128.63;;;14.19;55.29
82951;BME280;72737;53.332;6.514;2024-03-08T00:43:13;102125.06;;;14.19;55.33
82951;BME280;72737;53.332;6.514;2024-03-08T00:45:38;102132.16;;;14.20;55.05
82951;BME280;72737;53.332;6.514;2024-03-08T00:48:04;102130.81;;;14.17;55.08
82951;BME280;72737;53.332;6.514;2024-03-08T00:50:31;102119.53;;;14.14;55.58
82951;BME280;72737;53.332;6.514;2024-03-08T00:52:56;102116.31;;;14.17;55.18
82951;BME280;72737;53.332;6.514;2024-03-08T00:55:21;102116.56;;;14.15;55.59
82951;BME280;72737;53.332;6.514;2024-03-08T00:57:47;102117.38;;;14.16;55.08
82951;BME280;72737;53.332;6.514;2024-03-08T01:00:13;102105.59;;;14.10;55.16
82951;BME280;72737;53.332;6.514;2024-03-08T01:02:39;102112.16;;;14.14;55.91
82951;BME280;72737;53.332;6.514;2024-03-08T01:05:05;102106.72;;;14.14;55.17
82951;BME280;72737;53.332;6.514;2024-03-08T01:07:36;102099.31;;;14.15;55.35
82951;BME280;72737;53.332;6.514;2024-03-08T01:10:03;102102.59;;;14.12;55.81
82951;BME280;72737;53.332;6.514;2024-03-08T01:12:29;102106.41;;;14.11;55.83
82951;BME280;72737;53.332;6.514;2024-03-08T01:14:55;102091.63;;;14.07;56.02
82951;BME280;72737;53.332;6.514;2024-03-08T01:17:20;102090.59;;;14.13;55.82
82951;BME280;72737;53.332;6.514;2024-03-08T01:19:46;102088.09;;;14.11;55.66
82951;BME280;72737;53.332;6.514;2024-03-08T01:22:12;102083.69;;;14.05;56.14
82951;BME280;72737;53.332;6.514;2024-03-08T01:24:38;102079.03;;;14.06;56.09
82951;BME280;72737;53.332;6.514;2024-03-08T01:27:04;102083.97;;;14.09;55.84
82951;BME280;72737;53.332;6.514;2024-03-08T01:29:29;102082.88;;;14.10;55.73
82951;BME280;72737;53.332;6.514;2024-03-08T01:31:55;102074.41;;;14.06;55.81
82951;BME280;72737;53.332;6.514;2024-03-08T01:34:24;102068.09;;;14.06;56.32
82951;BME280;72737;53.332;6.514;2024-03-08T01:36:49;102071.66;;;14.06;56.06
82951;BME280;72737;53.332;6.514;2024-03-08T01:39:15;102061.56;;;14.07;56.28
82951;BME280;72737;53.332;6.514;2024-03-08T01:41:40;102062.66;;;14.06;56.27
82951;BME280;72737;53.332;6.514;2024-03-08T01:44:06;102046.25;;;14.06;56.10
82951;BME280;72737;53.332;6.514;2024-03-08T01:46:33;102043.50;;;14.06;56.41
82951;BME280;72737;53.332;6.514;2024-03-08T01:48:59;102047.91;;;14.07;56.02
82951;BME280;72737;53.332;6.514;2024-03-08T01:51:28;102027.38;;;14.04;56.24
82951;BME280;72737;53.332;6.514;2024-03-08T01:53:55;102033.69;;;14.10;56.51
82951;BME280;72737;53.332;6.514;2024-03-08T01:56:24;102027.13;;;14.11;56.72
82951;BME280;72737;53.332;6.514;2024-03-08T01:58:50;102028.47;;;14.08;56.74
82951;BME280;72737;53.332;6.514;2024-03-08T02:01:16;102036.41;;;14.10;56.83
82951;BME280;72737;53.332;6.514;2024-03-08T02:03:44;102032.34;;;14.12;56.66
82951;BME280;72737;53.332;6.514;2024-03-08T02:06:13;102021.69;;;14.11;56.33
82951;BME280;72737;53.332;6.514;2024-03-08T02:08:44;102017.84;;;14.12;56.35
82951;BME280;72737;53.332;6.514;2024-03-08T02:11:10;102017.31;;;14.15;56.47
82951;BME280;72737;53.332;6.514;2024-03-08T02:13:36;102016.22;;;14.16;56.21
82951;BME280;72737;53.332;6.514;2024-03-08T02:16:01;102004.72;;;14.14;56.25
82951;BME280;72737;53.332;6.514;2024-03-08T02:18:31;102009.69;;;14.17;56.84
82951;BME280;72737;53.332;6.514;2024-03-08T02:21:01;102015.97;;;14.17;57.00
82951;BME280;72737;53.332;6.514;2024-03-08T02:23:28;102000.41;;;14.18;56.22
82951;BME280;72737;53.332;6.514;2024-03-08T02:25:54;102007.25;;;14.21;56.82
82951;BME280;72737;53.332;6.514;2024-03-08T02:28:20;102013.78;;;14.19;56.70
82951;BME280;72737;53.332;6.514;2024-03-08T02:30:46;102009.69;;;14.17;56.39
82951;BME280;72737;53.332;6.514;2024-03-08T02:33:16;102003.94;;;14.18;56.67
82951;BME280;72737;53.332;6.514;2024-03-08T02:35:42;102011.84;;;14.15;56.44
82951;BME280;72737;53.332;6.514;2024-03-08T02:38:12;102004.75;;;14.19;57.04
82951;BME280;72737;53.332;6.514;2024-03-08T02:40:38;101996.56;;;14.19;56.74
82951;BME280;72737;53.332;6.514;2024-03-08T02:43:03;102009.97;;;14.21;56.82
82951;BME280;72737;53.332;6.514;2024-03-08T02:45:30;101998.47;;;14.18;56.88
82951;BME280;72737;53.332;6.514;2024-03-08T02:47:56;101999.56;;;14.12;56.59
82951;BME280;72737;53.332;6.514;2024-03-08T02:50:21;102004.75;;;14.19;57.04
82951;BME280;72737;53.332;6.514;2024-03-08T02:52:48;101999.03;;;14.21;56.55
82951;BME280;72737;53.332;6.514;2024-03-08T02:55:14;101995.72;;;14.18;56.55
82951;BME280;72737;53.332;6.514;2024-03-08T02:57:42;101990.56;;;14.17;56.58
82951;BME280;72737;53.332;6.514;2024-03-08T03:00:13;101997.13;;;14.21;56.33
82951;BME280;72737;53.332;6.514;2024-03-08T03:02:39;101988.91;;;14.21;56.11
82951;BME280;72737;53.332;6.514;2024-03-08T03:05:05;101979.63;;;14.17;56.29
82951;BME280;72737;53.332;6.514;2024-03-08T03:07:34;101981.53;;;14.16;56.58
82951;BME280;72737;53.332;6.514;2024-03-08T03:10:00;101985.63;;;14.19;56.22
82951;BME280;72737;53.332;6.514;2024-03-08T03:12:30;101982.88;;;14.19;56.09
82951;BME280;72737;53.332;6.514;2024-03-08T03:14:58;101974.69;;;14.19;56.35
82951;BME280;72737;53.332;6.514;2024-03-08T03:17:24;101979.63;;;14.17;56.24
82951;BME280;72737;53.332;6.514;2024-03-08T03:19:50;101974.69;;;14.19;56.62
82951;BME280;72737;53.332;6.514;2024-03-08T03:22:19;101965.13;;;14.16;56.68
82951;BME280;72737;53.332;6.514;2024-03-08T03:24:45;101967.59;;;14.18;56.40
82951;BME280;72737;53.332;6.514;2024-03-08T03:27:17;101972.78;;;14.19;55.95
82951;BME280;72737;53.332;6.514;2024-03-08T03:29:44;101968.38;;;14.18;55.88
82951;BME280;72737;53.332;6.514;2024-03-08T03:32:15;101966.22;;;14.21;56.09
82951;BME280;72737;53.332;6.514;2024-03-08T03:34:41;101972.53;;;14.21;55.95
82951;BME280;72737;53.332;6.514;2024-03-08T03:37:09;101958.28;;;14.19;56.49
82951;BME280;72737;53.332;6.514;2024-03-08T03:39:38;101956.66;;;14.18;55.78
82951;BME280;72737;53.332;6.514;2024-03-08T03:42:22;101958.28;;;14.19;56.52
82951;BME280;72737;53.332;6.514;2024-03-08T03:44:49;101963.50;;;14.21;56.44
82951;BME280;72737;53.332;6.514;2024-03-08T03:47:15;101953.34;;;14.16;56.09
82951;BME280;72737;53.332;6.514;2024-03-08T03:49:41;101951.19;;;14.18;56.54
82951;BME280;72737;53.332;6.514;2024-03-08T03:52:07;101946.53;;;14.18;56.58
82951;BME280;72737;53.332;6.514;2024-03-08T03:54:32;101949.53;;;14.17;56.29
82951;BME280;72737;53.332;6.514;2024-03-08T03:56:59;101955.53;;;14.19;56.00
82951;BME280;72737;53.332;6.514;2024-03-08T03:59:26;101951.19;;;14.18;56.35
82951;BME280;72737;53.332;6.514;2024-03-08T04:01:56;101948.16;;;14.19;56.10
82951;BME280;72737;53.332;6.514;2024-03-08T04:04:21;101944.63;;;14.19;56.42
82951;BME280;72737;53.332;6.514;2024-03-08T04:06:47;101943.78;;;14.18;55.96
82951;BME280;72737;53.332;6.514;2024-03-08T04:09:13;101945.44;;;14.19;56.45
82951;BME280;72737;53.332;6.514;2024-03-08T04:11:40;101933.69;;;14.19;56.52
82951;BME280;72737;53.332;6.514;2024-03-08T04:14:06;101933.41;;;14.21;56.04
82951;BME280;72737;53.332;6.514;2024-03-08T04:16:31;101928.75;;;14.16;56.49
82951;BME280;72737;53.332;6.514;2024-03-08T04:18:58;101934.22;;;14.16;56.52
82951;BME280;72737;53.332;6.514;2024-03-08T04:21:23;101933.69;;;14.19;56.04
82951;BME280;72737;53.332;6.514;2024-03-08T04:23:49;101923.31;;;14.21;56.18
82951;BME280;72737;53.332;6.514;2024-03-08T04:26:14;101921.66;;;14.20;56.07
82951;BME280;72737;53.332;6.514;2024-03-08T04:28:39;101912.91;;;14.18;56.47
82951;BME280;72737;53.332;6.514;2024-03-08T04:31:06;101924.94;;;14.17;56.33
82951;BME280;72737;53.332;6.514;2024-03-08T04:33:32;101918.38;;;14.18;56.70
82951;BME280;72737;53.332;6.514;2024-03-08T04:35:58;101921.13;;;14.18;56.47
82951;BME280;72737;53.332;6.514;2024-03-08T04:38:23;101911.53;;;14.15;56.13
82951;BME280;72737;53.332;6.514;2024-03-08T04:40:50;101907.97;;;14.15;55.95
82951;BME280;72737;53.332;6.514;2024-03-08T04:43:15;101902.50;;;14.15;56.14
82951;BME280;72737;53.332;6.514;2024-03-08T04:45:44;101904.16;;;14.16;56.78
82951;BME280;72737;53.332;6.514;2024-03-08T04:48:09;101902.50;;;14.15;55.77
82951;BME280;72737;53.332;6.514;2024-03-08T04:50:35;101914.84;;;14.17;56.02
82951;BME280;72737;53.332;6.514;2024-03-08T04:53:01;101910.44;;;14.16;55.73
82951;BME280;72737;53.332;6.514;2024-03-08T04:55:28;101899.50;;;14.16;56.33
82951;BME280;72737;53.332;6.514;2024-03-08T04:57:55;101897.03;;;14.15;55.74
82951;BME280;72737;53.332;6.514;2024-03-08T05:00:20;101909.63;;;14.16;56.65
82951;BME280;72737;53.332;6.514;2024-03-08T05:02:46;101900.34;;;14.17;56.36
82951;BME280;72737;53.332;6.514;2024-03-08T05:05:12;101892.13;;;14.12;56.61
82951;BME280;72737;53.332;6.514;2024-03-08T05:07:39;101892.41;;;14.21;56.59
82951;BME280;72737;53.332;6.514;2024-03-08T05:10:06;101875.78;;;14.32;56.83
82951;BME280;72737;53.332;6.514;2024-03-08T05:12:32;101882.94;;;14.38;55.54
82951;BME280;72737;53.332;6.514;2024-03-08T05:14:57;101882.41;;;14.46;54.77
82951;BME280;72737;53.332;6.514;2024-03-08T05:17:23;101881.03;;;14.49;53.95
82951;BME280;72737;53.332;6.514;2024-03-08T05:19:49;101881.84;;;14.54;53.46
82951;BME280;72737;53.332;6.514;2024-03-08T05:22:15;101879.69;;;14.62;53.67
82951;BME280;72737;53.332;6.514;2024-03-08T05:24:43;101882.41;;;14.51;54.52
82951;BME280;72737;53.332;6.514;2024-03-08T05:27:08;101877.97;;;14.35;54.68
82951;BME280;72737;53.332;6.514;2024-03-08T05:29:34;101885.63;;;14.28;55.00
82951;BME280;72737;53.332;6.514;2024-03-08T05:31:59;101875.75;;;14.22;54.65
82951;BME280;72737;53.332;6.514;2024-03-08T05:34:26;101878.75;;;14.21;55.30
82951;BME280;72737;53.332;6.514;2024-03-08T05:36:53;101869.97;;;14.18;55.21
82951;BME280;72737;53.332;6.514;2024-03-08T05:39:19;101869.97;;;14.18;55.07
82951;BME280;72737;53.332;6.514;2024-03-08T05:41:45;101873.25;;;14.15;54.95
82951;BME280;72737;53.332;6.514;2024-03-08T05:44:11;101877.91;;;14.20;54.54
82951;BME280;72737;53.332;6.514;2024-03-08T05:46:38;101874.66;;;14.18;54.80
82951;BME280;72737;53.332;6.514;2024-03-08T05:49:05;101876.56;;;14.17;55.08
82951;BME280;72737;53.332;6.514;2024-03-08T05:51:32;101878.16;;;14.13;54.65
82951;BME280;72737;53.332;6.514;2024-03-08T05:54:04;101872.97;;;14.12;55.37
82951;BME280;72737;53.332;6.514;2024-03-08T05:56:33;101877.63;;;14.11;54.64
82951;BME280;72737;53.332;6.514;2024-03-08T05:59:00;101876.78;;;14.11;54.63
82951;BME280;72737;53.332;6.514;2024-03-08T06:01:26;101874.63;;;14.08;54.67
82951;BME280;72737;53.332;6.514;2024-03-08T06:03:53;101880.09;;;14.08;54.62
82951;BME280;72737;53.332;6.514;2024-03-08T06:06:21;101871.88;;;14.08;54.81
82951;BME280;72737;53.332;6.514;2024-03-08T06:08:47;101868.56;;;14.06;55.45
82951;BME280;72737;53.332;6.514;2024-03-08T06:11:19;101870.75;;;14.09;54.64
82951;BME280;72737;53.332;6.514;2024-03-08T06:13:45;101884.97;;;14.06;55.20
82951;BME280;72737;53.332;6.514;2024-03-08T06:16:11;101883.97;;;14.27;54.93
82951;BME280;72737;53.332;6.514;2024-03-08T06:18:37;101881.31;;;14.42;54.39
82951;BME280;72737;53.332;6.514;2024-03-08T06:21:06;101885.44;;;14.60;55.01
82951;BME280;72737;53.332;6.514;2024-03-08T06:23:33;101887.91;;;14.62;54.40
82951;BME280;72737;53.332;6.514;2024-03-08T06:25:59;101884.56;;;14.44;54.74
82951;BME280;72737;53.332;6.514;2024-03-08T06:28:25;101876.28;;;14.29;55.22
82951;BME280;72737;53.332;6.514;2024-03-08T06:30:54;101885.59;;;14.18;55.12
82951;BME280;72737;53.332;6.514;2024-03-08T06:33:19;101886.66;;;14.12;55.82
82951;BME280;72737;53.332;6.514;2024-03-08T06:35:45;101883.41;;;14.25;55.73
82951;BME280;72737;53.332;6.514;2024-03-08T06:38:10;101880.75;;;14.40;54.87
82951;BME280;72737;53.332;6.514;2024-03-08T06:40:36;101883.41;;;14.30;55.20
82951;BME280;72737;53.332;6.514;2024-03-08T06:43:02;101874.09;;;14.21;55.77
82951;BME280;72737;53.332;6.514;2024-03-08T06:45:31;101877.63;;;14.16;55.73
82951;BME280;72737;53.332;6.514;2024-03-08T06:47:57;101881.69;;;14.09;55.86
82951;BME280;72737;53.332;6.514;2024-03-08T06:50:22;101885.59;;;14.18;56.15
82951;BME280;72737;53.332;6.514;2024-03-08T06:52:48;101884.75;;;14.12;56.29
82951;BME280;72737;53.332;6.514;2024-03-08T06:55:21;101877.63;;;14.16;56.00
82951;BME280;72737;53.332;6.514;2024-03-08T06:57:46;101877.38;;;14.13;55.44
82951;BME280;72737;53.332;6.514;2024-03-08T07:00:12;101880.63;;;14.10;56.18
82951;BME280;72737;53.332;6.514;2024-03-08T07:02:44;101884.72;;;14.07;55.52
82951;BME280;72737;53.332;6.514;2024-03-08T07:05:11;101885.00;;;14.11;55.31
82951;BME280;72737;53.332;6.514;2024-03-08T07:07:37;101877.88;;;14.10;55.38
82951;BME280;72737;53.332;6.514;2024-03-08T07:10:03;101878.97;;;14.14;55.31
82951;BME280;72737;53.332;6.514;2024-03-08T07:12:30;101878.13;;;14.08;55.78
82951;BME280;72737;53.332;6.514;2024-03-08T07:14:56;101873.53;;;14.19;55.31
82951;BME280;72737;53.332;6.514;2024-03-08T07:17:21;101870.81;;;14.19;55.47
82951;BME280;72737;53.332;6.514;2024-03-08T07:19:47;101869.47;;;14.22;54.76
82951;BME280;72737;53.332;6.514;2024-03-08T07:22:13;101874.34;;;14.14;55.01
82951;BME280;72737;53.332;6.514;2024-03-08T07:24:39;101860.41;;;14.16;55.33
82951;BME280;72737;53.332;6.514;2024-03-08T07:27:05;101870.25;;;14.17;55.41
82951;BME280;72737;53.332;6.514;2024-03-08T07:29:32;101868.34;;;14.17;54.65
82951;BME280;72737;53.332;6.514;2024-03-08T07:31:59;101863.72;;;14.18;54.89
82951;BME280;72737;53.332;6.514;2024-03-08T07:34:44;101873.00;;;14.17;55.11
82951;BME280;72737;53.332;6.514;2024-03-08T07:37:09;101864.22;;;14.15;54.51
82951;BME280;72737;53.332;6.514;2024-03-08T07:39:37;101869.97;;;14.13;55.14
82951;BME280;72737;53.332;6.514;2024-03-08T07:42:03;101868.59;;;14.11;54.39
82951;BME280;72737;53.332;6.514;2024-03-08T07:44:29;101873.50;;;14.09;54.65
82951;BME280;72737;53.332;6.514;2024-03-08T07:46:56;101869.16;;;14.13;54.76
82951;BME280;72737;53.332;6.514;2024-03-08T07:49:21;101865.59;;;14.12;54.35
82951;BME280;72737;53.332;6.514;2024-03-08T07:51:48;101862.03;;;14.12;54.96
82951;BME280;72737;53.332;6.514;2024-03-08T07:54:14;101856.00;;;14.05;54.67
82951;BME280;72737;53.332;6.514;2024-03-08T07:56:41;101854.38;;;14.09;54.46
82951;BME280;72737;53.332;6.514;2024-03-08T07:59:08;101858.19;;;14.03;54.36
82951;BME280;72737;53.332;6.514;2024-03-08T08:01:34;101856.00;;;14.05;54.92
82951;BME280;72737;53.332;6.514;2024-03-08T08:03:59;101844.53;;;14.03;54.99
82951;BME280;72737;53.332;6.514;2024-03-08T08:06:26;101845.06;;;14.05;54.92
82951;BME280;72737;53.332;6.514;2024-03-08T08:08:53;101837.13;;;14.03;54.37
82951;BME280;72737;53.332;6.514;2024-03-08T08:11:19;101833.31;;;14.04;54.92
82951;BME280;72737;53.332;6.514;2024-03-08T08:13:45;101834.38;;;14.03;54.20
82951;BME280;72737;53.332;6.514;2024-03-08T08:16:11;101831.13;;;14.01;54.36
82951;BME280;72737;53.332;6.514;2024-03-08T08:18:38;101824.00;;;14.00;54.92
82951;BME280;72737;53.332;6.514;2024-03-08T08:21:05;101819.91;;;13.98;54.47
82951;BME280;72737;53.332;6.514;2024-03-08T08:23:34;101817.44;;;13.96;55.02
82951;BME280;72737;53.332;6.514;2024-03-08T08:26:02;101815.25;;;13.98;55.17
82951;BME280;72737;53.332;6.514;2024-03-08T08:28:30;101816.34;;;13.97;55.04
82951;BME280;72737;53.332;6.514;2024-03-08T08:30:56;101806.25;;;13.98;54.60
82951;BME280;72737;53.332;6.514;2024-03-08T08:33:21;101804.59;;;13.97;55.04
82951;BME280;72737;53.332;6.514;2024-03-08T08:35:47;101800.78;;;13.93;54.62
82951;BME280;72737;53.332;6.514;2024-03-08T08:38:14;101792.28;;;13.94;54.52
82951;BME280;72737;53.332;6.514;2024-03-08T08:40:39;101790.63;;;13.93;55.17
82951;BME280;72737;53.332;6.514;2024-03-08T08:43:06;101785.72;;;13.90;54.62
82951;BME280;72737;53.332;6.514;2024-03-08T08:45:32;101783.81;;;13.91;54.92
82951;BME280;72737;53.332;6.514;2024-03-08T08:47:58;101776.44;;;13.91;54.72
82951;BME280;72737;53.332;6.514;2024-03-08T08:50:27;101774.25;;;13.93;54.72
82951;BME280;72737;53.332;6.514;2024-03-08T08:52:54;101767.97;;;13.93;54.53
82951;BME280;72737;53.332;6.514;2024-03-08T08:55:20;101776.97;;;13.93;55.12
82951;BME280;72737;53.332;6.514;2024-03-08T08:57:48;101764.13;;;13.94;54.53
82951;BME280;72737;53.332;6.514;2024-03-08T09:00:14;101762.22;;;13.94;55.36
82951;BME280;72737;53.332;6.514;2024-03-08T09:02:44;101769.59;;;13.94;54.72
82951;BME280;72737;53.332;6.514;2024-03-08T09:05:09;101757.31;;;13.96;55.05
82951;BME280;72737;53.332;6.514;2024-03-08T09:07:35;101763.03;;;13.90;55.32
82951;BME280;72737;53.332;6.514;2024-03-08T09:10:00;101754.84;;;13.90;55.10
82951;BME280;72737;53.332;6.514;2024-03-08T09:12:26;101746.09;;;13.83;55.49
82951;BME280;72737;53.332;6.514;2024-03-08T09:14:52;101756.44;;;13.75;55.90
82951;BME280;72737;53.332;6.514;2024-03-08T09:17:17;101746.88;;;13.73;55.39
82951;BME280;72737;53.332;6.514;2024-03-08T09:19:46;101747.41;;;13.70;55.56
82951;BME280;72737;53.332;6.514;2024-03-08T09:22:13;101747.41;;;13.70;55.53
82951;BME280;72737;53.332;6.514;2024-03-08T09:24:39;101745.78;;;13.74;55.51
82951;BME280;72737;53.332;6.514;2024-03-08T09:27:05;101740.88;;;13.71;56.09
82951;BME280;72737;53.332;6.514;2024-03-08T09:29:30;101734.31;;;13.72;56.12
82951;BME280;72737;53.332;6.514;2024-03-08T09:31:56;101727.47;;;13.69;55.57
82951;BME280;72737;53.332;6.514;2024-03-08T09:34:22;101729.13;;;13.75;55.69
82951;BME280;72737;53.332;6.514;2024-03-08T09:36:49;101725.03;;;13.73;56.15
82951;BME280;72737;53.332;6.514;2024-03-08T09:39:16;101724.75;;;13.74;55.93
82951;BME280;72737;53.332;6.514;2024-03-08T09:41:45;101717.94;;;13.77;56.11
82951;BME280;72737;53.332;6.514;2024-03-08T09:44:17;101716.56;;;13.85;56.04
82951;BME280;72737;53.332;6.514;2024-03-08T09:46:45;101711.38;;;13.78;55.83
82951;BME280;72737;53.332;6.514;2024-03-08T09:49:13;101709.19;;;13.85;55.44
82951;BME280;72737;53.332;6.514;2024-03-08T09:51:38;101706.75;;;13.99;55.60
82951;BME280;72737;53.332;6.514;2024-03-08T09:54:06;101708.41;;;14.05;55.04
82951;BME280;72737;53.332;6.514;2024-03-08T09:56:35;101704.59;;;14.06;55.12
82951;BME280;72737;53.332;6.514;2024-03-08T09:59:02;101697.22;;;14.06;55.36
82951;BME280;72737;53.332;6.514;2024-03-08T10:01:37;101696.94;;;14.13;55.05
82951;BME280;72737;53.332;6.514;2024-03-08T10:04:05;101698.88;;;14.17;55.25
82951;BME280;72737;53.332;6.514;2024-03-08T10:06:31;101685.19;;;14.23;54.85
82951;BME280;72737;53.332;6.514;2024-03-08T10:08:57;101690.38;;;14.24;55.00
82951;BME280;72737;53.332;6.514;2024-03-08T10:11:24;101677.25;;;14.26;54.59
82951;BME280;72737;53.332;6.514;2024-03-08T10:13:51;101675.63;;;14.30;54.57
82951;BME280;72737;53.332;6.514;2024-03-08T10:16:16;101670.72;;;14.22;54.48
82951;BME280;72737;53.332;6.514;2024-03-08T10:18:42;101670.41;;;14.24;55.01
82951;BME280;72737;53.332;6.514;2024-03-08T10:21:08;101669.63;;;14.23;54.70
82951;BME280;72737;53.332;6.514;2024-03-08T10:23:36;101661.13;;;14.25;54.54
82951;BME280;72737;53.332;6.514;2024-03-08T10:26:13;101654.31;;;14.27;54.38
82951;BME280;72737;53.332;6.514;2024-03-08T10:28:45;101654.00;;;14.29;54.40
82951;BME280;72737;53.332;6.514;2024-03-08T10:31:14;101657.56;;;14.29;54.73
82951;BME280;72737;53.332;6.514;2024-03-08T10:33:40;101652.66;;;14.31;54.44
82951;BME280;72737;53.332;6.514;2024-03-08T10:36:10;101646.63;;;14.34;54.80
82951;BME280;72737;53.332;6.514;2024-03-08T10:38:38;101637.31;;;14.35;54.88
82951;BME280;72737;53.332;6.514;2024-03-08T10:41:08;101638.44;;;14.39;54.64
82951;BME280;72737;53.332;6.514;2024-03-08T10:46:33;101624.25;;;14.42;54.41
82951;BME280;72737;53.332;6.514;2024-03-08T10:49:08;101622.31;;;14.43;54.07
82951;BME280;72737;53.332;6.514;2024-03-08T10:51:38;101621.22;;;14.44;54.59
82951;BME280;72737;53.332;6.514;2024-03-08T10:54:09;101617.09;;;14.51;54.49
82951;BME280;72737;53.332;6.514;2024-03-08T10:56:36;101622.81;;;14.55;54.15
82951;BME280;72737;53.332;6.514;2024-03-08T10:59:01;101620.91;;;14.55;54.46
82951;BME280;72737;53.332;6.514;2024-03-08T11:01:30;101610.50;;;14.63;53.62
82951;BME280;72737;53.332;6.514;2024-03-08T11:03:56;101614.91;;;14.64;54.00
82951;BME280;72737;53.332;6.514;2024-03-08T11:09:02;101610.75;;;14.71;53.43
82951;BME280;72737;53.332;6.514;2024-03-08T11:11:31;101599.81;;;14.71;53.70
82951;BME280;72737;53.332;6.514;2024-03-08T11:13:57;101602.78;;;14.75;53.41
82951;BME280;72737;53.332;6.514;2024-03-08T11:19:00;101601.97;;;14.79;53.44
82951;BME280;72737;53.332;6.514;2024-03-08T11:21:30;101580.38;;;14.78;54.02
82951;BME280;72737;53.332;6.514;2024-03-08T11:24:07;101584.19;;;14.82;53.36
82951;BME280;72737;53.332;6.514;2024-03-08T11:26:33;101572.66;;;14.85;54.04
82951;BME280;72737;53.332;6.514;2024-03-08T11:31:52;101573.19;;;14.92;53.74
82951;BME280;72737;53.332;6.514;2024-03-08T11:34:17;101573.44;;;14.95;53.13
82951;BME280;72737;53.332;6.514;2024-03-08T11:36:48;101560.03;;;14.94;53.33
82951;BME280;72737;53.332;6.514;2024-03-08T11:39:13;101563.03;;;14.97;53.77
82951;BME280;72737;53.332;6.514;2024-03-08T11:41:40;101557.25;;;14.99;53.33
82951;BME280;72737;53.332;6.514;2024-03-08T11:44:07;101553.44;;;15.00;53.51
82951;BME280;72737;53.332;6.514;2024-03-08T11:46:34;101552.88;;;15.03;53.21
82951;BME280;72737;53.332;6.514;2024-03-08T11:49:00;101552.34;;;15.01;53.63
82951;BME280;72737;53.332;6.514;2024-03-08T11:51:27;101544.66;;;15.03;52.93
82951;BME280;72737;53.332;6.514;2024-03-08T11:53:52;101556.44;;;15.03;53.07
82951;BME280;72737;53.332;6.514;2024-03-08T11:56:18;101548.50;;;15.02;52.90
82951;BME280;72737;53.332;6.514;2024-03-08T11:58:54;101547.41;;;15.03;53.38
82951;BME280;72737;53.332;6.514;2024-03-08T12:01:22;101537.28;;;15.03;53.16
82951;BME280;72737;53.332;6.514;2024-03-08T12:03:55;101532.59;;;15.04;53.21
82951;BME280;72737;53.332;6.514;2024-03-08T12:06:24;101539.44;;;15.07;53.06
82951;BME280;72737;53.332;6.514;2024-03-08T12:08:50;101523.03;;;15.07;53.32
82951;BME280;72737;53.332;6.514;2024-03-08T12:11:19;101521.09;;;15.07;53.39
82951;BME280;72737;53.332;6.514;2024-03-08T12:13:49;101513.97;;;15.06;52.98
82951;BME280;72737;53.332;6.514;2024-03-08T12:16:19;101520.53;;;15.10;53.01
82951;BME280;72737;53.332;6.514;2024-03-08T12:18:47;101509.56;;;15.10;52.94
82951;BME280;72737;53.332;6.514;2024-03-08T12:21:13;101515.03;;;15.10;52.91
82951;BME280;72737;53.332;6.514;2024-03-08T12:23:43;101506.84;;;15.10;53.62
82951;BME280;72737;53.332;6.514;2024-03-08T12:26:13;101501.13;;;15.07;53.71
82951;BME280;72737;53.332;6.514;2024-03-08T12:28:40;101500.03;;;15.08;53.22
82951;BME280;72737;53.332;6.514;2024-03-08T12:31:07;101494.53;;;15.08;53.37
82951;BME280;72737;53.332;6.514;2024-03-08T12:33:53;101482.22;;;15.05;53.72
82951;BME280;72737;53.332;6.514;2024-03-08T12:36:19;101481.69;;;15.08;53.68
82951;BME280;72737;53.332;6.514;2024-03-08T12:38:48;101475.91;;;15.10;53.19
82951;BME280;72737;53.332;6.514;2024-03-08T12:41:15;101478.94;;;15.08;53.22
82951;BME280;72737;53.332;6.514;2024-03-08T12:43:41;101470.44;;;15.10;53.39
82951;BME280;72737;53.332;6.514;2024-03-08T12:46:07;101458.66;;;15.09;53.59
82951;BME280;72737;53.332;6.514;2024-03-08T12:48:37;101460.28;;;15.10;53.57
82951;BME280;72737;53.332;6.514;2024-03-08T12:51:07;101454.31;;;15.08;53.40
82951;BME280;72737;53.332;6.514;2024-03-08T12:53:34;101454.81;;;15.10;53.25
82951;BME280;72737;53.332;6.514;2024-03-08T12:56:01;101452.34;;;15.14;53.30
82951;BME280;72737;53.332;6.514;2024-03-08T12:58:26;101452.88;;;15.16;53.46
82951;BME280;72737;53.332;6.514;2024-03-08T13:00:52;101436.47;;;15.11;53.57